Time;durP1;ratioP1;P1;durP2;ratioP2;P2;SDS_P1;SDS_P2;PMS_P1;PMS_P2;Temp;Humidity;BMP_temperature;BMP_pressure;BME280_temperature;BME280_humidity;BME280_pressure;Samples;Min_cycle;Max_cycle;Signal;HPM_P1;HPM_P2
2024/01/25 00:00:05;;;;;;;40.53;20.08;;;;;;;3.25;72.89;100025.69;4952950;29;20050;-26
2024/01/25 00:02:30;;;;;;;35.40;17.50;;;;;;;3.45;71.88;100011.44;4952696;29;20039;-27
2024/01/25 00:04:55;;;;;;;38.22;17.77;;;;;;;3.25;72.91;100044.94;4952442;29;20038;-27
2024/01/25 00:07:21;;;;;;;32.10;15.32;;;;;;;2.80;73.72;100008.13;4952636;29;20532;-26
2024/01/25 00:09:46;;;;;;;30.83;15.93;;;;;;;2.89;73.75;99994.09;4952777;29;20036;-27
2024/01/25 00:12:12;;;;;;;31.98;16.13;;;;;;;3.00;73.75;99977.28;4952674;29;20138;-27
2024/01/25 00:14:37;;;;;;;30.17;14.75;;;;;;;2.87;74.20;99985.53;4952347;29;20062;-26
2024/01/25 00:17:03;;;;;;;28.65;14.80;;;;;;;3.03;73.95;99980.47;4952818;29;20153;-27
2024/01/25 00:19:28;;;;;;;27.35;13.57;;;;;;;2.81;74.67;99979.06;4952690;29;20031;-27
2024/01/25 00:21:53;;;;;;;26.70;14.63;;;;;;;2.97;73.87;99991.56;4952711;29;20019;-27
2024/01/25 00:24:19;;;;;;;29.45;15.18;;;;;;;3.16;73.48;99993.25;4952958;29;20452;-27
2024/01/25 00:26:44;;;;;;;30.00;14.90;;;;;;;3.04;73.68;99971.56;4952318;29;20029;-26
2024/01/25 00:29:10;;;;;;;28.30;14.05;;;;;;;3.24;72.81;99974.09;4952978;29;20034;-26
2024/01/25 00:31:35;;;;;;;30.95;14.95;;;;;;;3.03;73.15;99971.75;4952656;29;20106;-26
2024/01/25 00:34:02;;;;;;;32.85;15.70;;;;;;;3.06;72.93;99968.81;4953921;28;20476;-26
2024/01/25 00:36:28;;;;;;;34.78;15.73;;;;;;;3.22;72.96;99974.22;4956172;29;20101;-26
2024/01/25 00:38:54;;;;;;;27.33;14.18;;;;;;;3.02;72.81;99975.34;4956451;29;20429;-26
2024/01/25 00:41:19;;;;;;;34.15;15.63;;;;;;;2.76;74.53;99978.69;4956212;29;20447;-26
2024/01/25 00:43:45;;;;;;;29.30;14.95;;;;;;;2.88;73.89;99967.00;4955980;29;20566;-27
2024/01/25 00:46:12;;;;;;;30.67;14.55;;;;;;;2.82;73.60;99938.66;4956063;29;20112;-27
2024/01/25 00:48:39;;;;;;;29.30;14.43;;;;;;;3.09;72.65;99943.03;4955972;29;20115;-26
2024/01/25 00:51:07;;;;;;;27.20;15.27;;;;;;;3.06;72.86;99955.66;4955802;29;20030;-26
2024/01/25 00:53:33;;;;;;;29.95;14.77;;;;;;;3.07;72.85;99944.19;4956064;29;20031;-27
2024/01/25 00:55:58;;;;;;;29.75;14.23;;;;;;;3.16;72.33;99937.16;4955975;29;20034;-26
2024/01/25 00:58:24;;;;;;;28.42;13.43;;;;;;;3.21;71.94;99932.28;4956007;29;20031;-26
2024/01/25 01:00:50;;;;;;;24.75;11.75;;;;;;;3.22;71.38;99933.94;4956234;29;20023;-26
2024/01/25 01:03:19;;;;;;;19.30;10.05;;;;;;;3.45;70.29;99945.66;4955978;29;20403;-26
2024/01/25 01:05:45;;;;;;;14.48;7.15;;;;;;;3.51;69.74;99928.44;4955541;29;20460;-40
2024/01/25 01:08:11;;;;;;;11.98;6.10;;;;;;;3.62;69.21;99915.03;4955643;29;20031;-38
2024/01/25 01:10:36;;;;;;;12.52;5.20;;;;;;;3.99;68.42;99913.09;4954889;29;20019;-40
2024/01/25 01:13:02;;;;;;;9.68;4.65;;;;;;;4.52;66.92;99906.75;4955227;29;20460;-40
2024/01/25 01:15:27;;;;;;;6.30;3.97;;;;;;;4.73;65.88;99898.38;4955134;29;20380;-40
2024/01/25 01:17:52;;;;;;;7.40;3.90;;;;;;;5.31;63.58;99864.94;4954643;29;20118;-40
2024/01/25 01:20:18;;;;;;;6.45;3.70;;;;;;;5.72;62.45;99874.63;4954661;29;20034;-40
2024/01/25 01:22:43;;;;;;;5.40;3.17;;;;;;;5.88;61.60;99872.78;4954401;29;20023;-39
2024/01/25 01:25:10;;;;;;;5.85;3.17;;;;;;;6.05;60.97;99863.03;4954131;29;20677;-39
2024/01/25 01:27:35;;;;;;;3.47;2.50;;;;;;;6.32;60.70;99868.00;4955055;29;20034;-41
2024/01/25 01:30:01;;;;;;;3.13;2.13;;;;;;;6.47;59.97;99868.91;4937417;29;20023;-41
2024/01/25 01:32:26;;;;;;;4.22;2.60;;;;;;;6.26;60.70;99865.06;4954578;29;20078;-41
2024/01/25 01:34:51;;;;;;;7.45;2.83;;;;;;;6.46;59.56;99870.75;4954744;29;20118;-40
2024/01/25 01:37:17;;;;;;;4.93;2.67;;;;;;;6.61;59.17;99868.19;4954812;29;20460;-27
2024/01/25 01:39:42;;;;;;;5.25;2.85;;;;;;;6.65;58.68;99858.09;4955037;29;20372;-28
2024/01/25 01:42:07;;;;;;;5.80;2.65;;;;;;;6.54;57.94;99872.53;4954985;29;20022;-27
2024/01/25 01:44:33;;;;;;;5.72;2.33;;;;;;;6.68;56.67;99867.47;4954384;28;20023;-27
2024/01/25 01:46:59;;;;;;;4.25;2.45;;;;;;;6.81;55.39;99857.13;4954258;29;20114;-26
2024/01/25 01:49:25;;;;;;;4.75;2.70;;;;;;;6.98;55.08;99860.50;4954701;29;20023;-26
2024/01/25 01:51:51;;;;;;;4.63;2.72;;;;;;;7.15;54.03;99862.00;4954686;29;20035;-28
2024/01/25 01:54:17;;;;;;;3.85;2.15;;;;;;;6.88;54.65;99862.56;4954863;29;20031;-26
2024/01/25 01:56:44;;;;;;;3.75;2.58;;;;;;;7.15;53.93;99854.06;4954898;29;20019;-27
2024/01/25 01:59:13;;;;;;;3.13;2.08;;;;;;;7.18;53.28;99861.66;4955134;29;20106;-27
2024/01/25 02:01:38;;;;;;;3.28;2.30;;;;;;;7.43;52.96;99856.16;4954956;29;20015;-26
2024/01/25 02:04:04;;;;;;;4.07;2.60;;;;;;;6.99;53.95;99847.09;4954843;29;20515;-27
2024/01/25 02:06:30;;;;;;;4.38;2.45;;;;;;;7.19;53.69;99841.31;4946723;29;20118;-27
2024/01/25 02:08:58;;;;;;;4.32;2.50;;;;;;;7.17;54.19;99843.31;4945946;29;20752;-27
2024/01/25 02:11:24;;;;;;;5.45;2.70;;;;;;;7.21;53.51;99844.59;4943262;29;20051;-26
2024/01/25 02:13:49;;;;;;;5.70;2.58;;;;;;;7.40;52.95;99836.13;4945702;29;20043;-26
2024/01/25 02:16:15;;;;;;;6.57;2.63;;;;;;;7.49;52.94;99836.88;4940883;29;20027;-27
2024/01/25 02:18:41;;;;;;;4.22;2.60;;;;;;;7.28;53.64;99827.00;4935036;29;20023;-27
2024/01/25 02:21:07;;;;;;;3.65;2.30;;;;;;;7.10;54.50;99829.13;4934999;29;20052;-27
2024/01/25 02:23:32;;;;;;;3.60;2.20;;;;;;;7.13;54.79;99831.44;4934652;29;20456;-26
2024/01/25 02:25:58;;;;;;;3.42;2.35;;;;;;;7.13;55.00;99823.50;4935046;29;20054;-26
2024/01/25 02:28:23;;;;;;;3.25;2.30;;;;;;;7.23;55.32;99826.69;4935486;29;20440;-27
2024/01/25 02:30:48;;;;;;;6.68;2.30;;;;;;;7.44;55.25;99818.91;4934774;29;20036;-27
2024/01/25 02:33:14;;;;;;;5.50;2.58;;;;;;;7.58;55.12;99816.44;4941314;29;20059;-27
2024/01/25 02:35:39;;;;;;;5.15;2.40;;;;;;;7.62;55.18;99807.94;4953866;29;20031;-27
2024/01/25 02:38:04;;;;;;;7.63;2.60;;;;;;;7.90;55.27;99804.66;4953762;29;20027;-27
2024/01/25 02:40:30;;;;;;;3.35;2.15;;;;;;;7.79;55.40;99779.44;4954160;29;20027;-27
2024/01/25 02:42:58;;;;;;;3.67;2.30;;;;;;;8.15;55.34;99802.50;4954093;29;20558;-26
2024/01/25 02:45:23;;;;;;;2.70;2.00;;;;;;;8.34;55.05;99808.19;4953914;29;20023;-27
2024/01/25 02:47:49;;;;;;;5.68;2.20;;;;;;;8.44;55.13;99800.81;4953829;29;20078;-27
2024/01/25 02:50:15;;;;;;;3.75;2.10;;;;;;;8.47;54.81;99786.34;4953469;29;20031;-27
2024/01/25 02:52:40;;;;;;;5.55;2.20;;;;;;;8.59;55.30;99792.81;4953725;29;20023;-27
2024/01/25 02:55:06;;;;;;;3.05;2.00;;;;;;;8.54;56.05;99789.91;4953560;29;20684;-27
2024/01/25 02:57:32;;;;;;;3.33;1.70;;;;;;;8.61;55.52;99796.91;4953185;28;20031;-26
2024/01/25 02:59:57;;;;;;;3.05;1.98;;;;;;;8.79;55.43;99777.88;4953742;29;20495;-27
2024/01/25 03:02:23;;;;;;;3.53;1.58;;;;;;;9.08;54.31;99792.03;4953647;29;20062;-27
2024/01/25 03:04:48;;;;;;;2.58;1.67;;;;;;;9.32;53.91;99774.00;4953356;29;20539;-27
2024/01/25 03:07:14;;;;;;;2.78;1.67;;;;;;;9.14;54.33;99771.84;4953444;29;20034;-27
2024/01/25 03:09:39;;;;;;;3.50;1.80;;;;;;;9.19;54.99;99788.84;4953264;29;20030;-27
2024/01/25 03:12:05;;;;;;;2.92;1.92;;;;;;;9.20;55.01;99792.31;4952912;29;20029;-26
2024/01/25 03:14:30;;;;;;;3.00;1.80;;;;;;;9.16;55.72;99775.13;4953115;29;20054;-26
2024/01/25 03:16:56;;;;;;;3.40;1.90;;;;;;;9.40;55.71;99776.50;4953558;29;20031;-27
2024/01/25 03:19:24;;;;;;;2.05;1.73;;;;;;;9.25;56.11;99783.75;4936415;29;20027;-26
2024/01/25 03:21:50;;;;;;;3.80;1.75;;;;;;;9.41;56.25;99788.78;4953883;29;20027;-27
2024/01/25 03:24:15;;;;;;;2.30;1.55;;;;;;;9.27;56.56;99776.41;4953687;29;20027;-27
2024/01/25 03:26:40;;;;;;;3.03;1.77;;;;;;;9.57;56.45;99769.84;4953546;29;20024;-27
2024/01/25 03:29:06;;;;;;;2.13;1.40;;;;;;;9.50;56.33;99758.38;4953311;29;20465;-27
2024/01/25 03:31:31;;;;;;;3.20;1.80;;;;;;;9.87;56.18;99758.16;4950298;29;20032;-27
2024/01/25 03:33:56;;;;;;;2.05;1.60;;;;;;;9.51;56.65;99754.69;4948911;29;20039;-26
2024/01/25 03:36:22;;;;;;;3.22;1.48;;;;;;;9.46;56.99;99772.25;4953178;29;20078;-27
2024/01/25 03:38:47;;;;;;;3.10;1.80;;;;;;;9.57;56.25;99759.22;4953262;29;20023;-26
2024/01/25 03:41:13;;;;;;;2.40;1.70;;;;;;;9.55;56.73;99769.22;4953043;29;20023;-27
2024/01/25 03:43:38;;;;;;;3.60;2.00;;;;;;;9.44;56.80;99768.97;4952579;29;20082;-26
2024/01/25 03:46:03;;;;;;;3.33;2.17;;;;;;;9.25;57.01;99767.81;4953118;29;20555;-27
2024/01/25 03:48:30;;;;;;;2.65;2.00;;;;;;;9.37;56.24;99764.44;4953155;29;20023;-26
2024/01/25 03:50:56;;;;;;;3.10;1.90;;;;;;;9.33;55.87;99775.66;4953090;29;20019;-26
2024/01/25 03:53:22;;;;;;;4.03;1.88;;;;;;;9.48;54.69;99791.47;4953298;29;20595;-37
2024/01/25 03:55:48;;;;;;;2.78;1.70;;;;;;;9.26;54.86;99794.19;4950734;29;20121;-28
2024/01/25 03:58:14;;;;;;;2.80;1.77;;;;;;;9.15;54.74;99797.38;4934108;29;20481;-40
2024/01/25 04:00:40;;;;;;;3.30;1.80;;;;;;;9.19;54.86;99794.16;4936857;29;20073;-26
2024/01/25 04:03:05;;;;;;;2.75;1.80;;;;;;;9.50;53.82;99800.88;4952521;29;20403;-40
2024/01/25 04:05:31;;;;;;;3.00;1.63;;;;;;;9.31;54.53;99785.63;4952274;29;20170;-26
2024/01/25 04:07:56;;;;;;;2.97;1.80;;;;;;;9.19;55.29;99799.47;4953367;28;20031;-39
2024/01/25 04:10:22;;;;;;;4.05;1.67;;;;;;;9.21;55.01;99778.00;4957355;29;20019;-27
2024/01/25 04:12:47;;;;;;;2.20;1.40;;;;;;;9.15;55.80;99774.28;4957368;29;20034;-27
2024/01/25 04:15:12;;;;;;;3.67;1.30;;;;;;;9.49;55.23;99763.88;4939980;29;20110;-28
2024/01/25 04:17:38;;;;;;;4.85;1.55;;;;;;;9.62;55.02;99771.94;4957183;29;20054;-27
2024/01/25 04:20:04;;;;;;;2.22;1.40;;;;;;;9.75;54.51;99765.88;4956656;29;20055;-26
2024/01/25 04:22:29;;;;;;;3.03;1.10;;;;;;;10.05;53.25;99769.06;4956961;29;20015;-40
2024/01/25 04:24:55;;;;;;;2.75;1.27;;;;;;;9.82;53.83;99773.84;4956527;29;20106;-27
2024/01/25 04:27:20;;;;;;;2.22;1.10;;;;;;;9.74;53.92;99796.09;4939692;29;20038;-40
2024/01/25 04:29:45;;;;;;;4.93;1.38;;;;;;;9.87;54.19;99806.00;4956122;29;20395;-39
2024/01/25 04:32:12;;;;;;;3.67;1.50;;;;;;;9.86;54.28;99821.13;4939187;29;20122;-37
2024/01/25 04:34:38;;;;;;;5.18;1.50;;;;;;;9.91;53.99;99829.31;4943522;29;20065;-39
2024/01/25 04:37:03;;;;;;;2.72;1.50;;;;;;;9.97;53.93;99825.84;4956353;29;20055;-36
2024/01/25 04:39:29;;;;;;;2.00;1.50;;;;;;;10.06;53.82;99815.88;4956294;29;20015;-40
2024/01/25 04:41:54;;;;;;;2.72;1.52;;;;;;;10.16;53.55;99805.69;4956032;29;20487;-38
2024/01/25 04:44:19;;;;;;;1.88;1.27;;;;;;;10.01;54.69;99818.31;4952700;29;20023;-36
2024/01/25 04:46:45;;;;;;;2.75;1.63;;;;;;;10.02;54.88;99808.53;4950870;29;20497;-39
2024/01/25 04:49:10;;;;;;;2.63;1.35;;;;;;;9.82;55.27;99797.78;4946680;29;20044;-40
2024/01/25 04:51:36;;;;;;;2.75;1.48;;;;;;;10.26;54.00;99809.81;4956005;29;20483;-39
2024/01/25 04:54:02;;;;;;;3.88;1.35;;;;;;;9.88;55.36;99799.63;4956313;29;20082;-39
2024/01/25 04:56:28;;;;;;;3.25;1.65;;;;;;;9.74;55.50;99810.22;4943630;29;20035;-40
2024/01/25 04:58:53;;;;;;;2.53;1.60;;;;;;;9.73;55.55;99803.28;4956566;29;20396;-39
2024/01/25 05:01:18;;;;;;;2.75;1.73;;;;;;;9.57;56.92;99796.41;4955786;29;20418;-38
2024/01/25 05:03:44;;;;;;;4.63;1.60;;;;;;;10.05;54.91;99808.09;4955600;29;20069;-40
2024/01/25 05:06:09;;;;;;;3.53;1.50;;;;;;;9.94;55.92;99796.22;4938365;29;20027;-40
2024/01/25 05:08:34;;;;;;;2.33;1.48;;;;;;;9.63;56.57;99816.06;4955854;29;20443;-39
2024/01/25 05:11:00;;;;;;;2.28;1.48;;;;;;;9.83;56.14;99807.41;4955440;29;20063;-39
2024/01/25 05:13:25;;;;;;;3.63;1.70;;;;;;;9.83;56.51;99820.69;4955435;29;20035;-39
2024/01/25 05:15:51;;;;;;;2.33;1.42;;;;;;;9.62;57.63;99798.50;4954012;29;20019;-40
2024/01/25 05:18:16;;;;;;;2.85;1.63;;;;;;;9.75;57.09;99800.41;4955269;29;20019;-40
2024/01/25 05:20:42;;;;;;;2.35;1.60;;;;;;;9.83;56.59;99794.94;4955416;28;20027;-39
2024/01/25 05:23:07;;;;;;;2.47;1.50;;;;;;;9.73;57.71;99789.16;4937983;29;20035;-40
2024/01/25 05:25:32;;;;;;;3.63;1.55;;;;;;;9.74;57.45;99809.41;4955697;29;20038;-37
2024/01/25 05:27:58;;;;;;;1.67;1.23;;;;;;;9.76;58.01;99820.66;4954889;29;20106;-38
2024/01/25 05:30:24;;;;;;;2.03;1.40;;;;;;;10.12;57.31;99820.41;4955169;29;20035;-39
2024/01/25 05:32:50;;;;;;;2.83;1.90;;;;;;;9.82;57.93;99817.19;4955153;29;20077;-37
2024/01/25 05:35:16;;;;;;;6.72;2.15;;;;;;;10.16;57.95;99818.16;4955128;29;20035;-40
2024/01/25 05:37:42;;;;;;;3.00;1.70;;;;;;;10.26;57.20;99786.72;4955033;29;20027;-36
2024/01/25 05:40:09;;;;;;;5.10;2.75;;;;;;;10.16;57.44;99811.00;4954080;29;20046;-39
2024/01/25 05:42:35;;;;;;;2.63;1.67;;;;;;;9.86;58.08;99804.34;4954560;29;20158;-40
2024/01/25 05:45:01;;;;;;;8.02;1.77;;;;;;;9.69;59.00;99817.13;4954468;29;20070;-39
2024/01/25 05:47:26;;;;;;;7.03;2.22;;;;;;;9.82;59.32;99824.34;4953627;29;20031;-39
2024/01/25 05:49:51;;;;;;;4.32;1.70;;;;;;;9.68;58.82;99800.38;4953844;29;20025;-37
2024/01/25 05:52:17;;;;;;;1.80;1.30;;;;;;;9.84;59.01;99823.13;4936698;29;20111;-40
2024/01/25 05:54:43;;;;;;;3.47;1.60;;;;;;;10.05;58.79;99821.41;4936975;29;20058;-41
2024/01/25 05:57:09;;;;;;;2.72;1.48;;;;;;;10.15;58.08;99820.03;4954109;29;20108;-40
2024/01/25 05:59:34;;;;;;;3.78;1.25;;;;;;;10.10;58.61;99832.28;4954068;29;20114;-43
2024/01/25 06:02:00;;;;;;;2.92;1.42;;;;;;;10.51;56.83;99834.91;4954394;29;20043;-39
2024/01/25 06:04:25;;;;;;;3.17;1.45;;;;;;;10.30;57.37;99838.53;4954522;29;20026;-39
2024/01/25 06:06:50;;;;;;;2.88;1.40;;;;;;;10.34;57.89;99830.97;4955559;29;20073;-41
2024/01/25 06:09:16;;;;;;;1.85;1.33;;;;;;;10.33;57.40;99846.09;4954841;29;20082;-40
2024/01/25 06:11:41;;;;;;;1.70;1.30;;;;;;;10.32;57.92;99859.63;4954818;29;20145;-40
2024/01/25 06:14:07;;;;;;;5.50;1.60;;;;;;;10.11;58.37;99863.16;4955176;29;20027;-39
2024/01/25 06:16:33;;;;;;;3.40;1.20;;;;;;;10.02;59.27;99870.47;4955118;29;20127;-40
2024/01/25 06:19:00;;;;;;;2.33;1.52;;;;;;;9.90;59.82;99874.69;4954378;29;20110;-38
2024/01/25 06:21:25;;;;;;;2.58;1.23;;;;;;;9.93;59.56;99883.09;4954189;29;20410;-39
2024/01/25 06:23:51;;;;;;;1.92;1.38;;;;;;;9.75;59.40;99888.94;4954018;29;20031;-37
2024/01/25 06:26:16;;;;;;;2.95;1.65;;;;;;;9.64;60.16;99889.47;4954558;29;20097;-40
2024/01/25 06:28:41;;;;;;;2.95;1.80;;;;;;;9.81;60.05;99883.88;4953843;29;20440;-40
2024/01/25 06:31:07;;;;;;;4.63;2.42;;;;;;;9.64;60.84;99884.16;4953504;28;20038;-40
2024/01/25 06:33:32;;;;;;;3.50;2.00;;;;;;;9.81;60.35;99886.53;4953631;29;20106;-39
2024/01/25 06:35:58;;;;;;;5.35;1.80;;;;;;;9.66;60.34;99865.38;4953138;29;20039;-38
2024/01/25 06:38:23;;;;;;;3.42;1.88;;;;;;;9.47;60.84;99864.22;4953985;29;20106;-39
2024/01/25 06:40:48;;;;;;;4.10;1.70;;;;;;;9.59;60.44;99874.13;4936190;29;20094;-39
2024/01/25 06:43:14;;;;;;;3.60;1.98;;;;;;;9.56;60.23;99879.81;4953694;29;20515;-40
2024/01/25 06:45:42;;;;;;;3.28;1.67;;;;;;;9.58;59.88;99879.63;4953699;29;20030;-40
2024/01/25 06:48:11;;;;;;;3.80;1.60;;;;;;;9.69;59.58;99887.06;4953225;29;20177;-40
2024/01/25 06:50:36;;;;;;;5.25;2.28;;;;;;;9.62;58.90;99883.53;4953454;29;20114;-40
2024/01/25 06:53:02;;;;;;;4.82;3.03;;;;;;;9.91;57.53;99882.47;4952764;29;20456;-38
2024/01/25 06:55:27;;;;;;;5.03;1.60;;;;;;;10.45;55.46;99872.97;4953401;29;20027;-40
2024/01/25 06:57:53;;;;;;;3.45;1.85;;;;;;;10.51;55.00;99887.31;4953570;29;20023;-41
2024/01/25 07:00:20;;;;;;;4.45;1.83;;;;;;;10.60;54.54;99871.97;4953105;29;20035;-40
2024/01/25 07:02:46;;;;;;;3.35;1.70;;;;;;;11.14;52.76;99879.03;4953842;29;20042;-38
2024/01/25 07:05:11;;;;;;;3.05;1.50;;;;;;;11.58;51.35;99885.59;4954165;29;20027;-39
2024/01/25 07:07:38;;;;;;;5.03;1.85;;;;;;;11.66;50.72;99888.03;4953886;29;20058;-41
2024/01/25 07:10:05;;;;;;;4.85;2.00;;;;;;;11.52;51.08;99889.09;4953873;29;20162;-42
2024/01/25 07:12:30;;;;;;;4.78;2.03;;;;;;;11.68;51.57;99878.00;4953180;29;20055;-41
2024/01/25 07:14:55;;;;;;;5.43;1.73;;;;;;;11.53;51.08;99880.88;4952931;29;20063;-41
2024/01/25 07:17:21;;;;;;;6.85;1.88;;;;;;;11.50;51.79;99886.63;4953205;29;20027;-42
2024/01/25 07:19:46;;;;;;;6.45;1.92;;;;;;;11.48;51.34;99877.19;4953284;29;20553;-40
2024/01/25 07:22:13;;;;;;;6.75;2.08;;;;;;;11.22;52.70;99886.00;4953395;29;20514;-42
2024/01/25 07:24:40;;;;;;;5.82;2.20;;;;;;;11.49;51.19;99897.50;4952919;29;20443;-38
2024/01/25 07:27:05;;;;;;;4.78;2.00;;;;;;;11.00;52.79;99888.84;4952774;29;20031;-38
2024/01/25 07:29:30;;;;;;;6.40;2.38;;;;;;;11.11;52.90;99895.41;4953045;29;20027;-41
2024/01/25 07:31:56;;;;;;;6.72;2.13;;;;;;;11.11;53.18;99904.22;4953064;29;20492;-39
2024/01/25 07:34:21;;;;;;;7.07;2.38;;;;;;;11.24;52.55;99897.28;4952558;29;20452;-39
2024/01/25 07:36:46;;;;;;;5.75;2.10;;;;;;;11.60;51.39;99912.06;4952875;29;20035;-44
2024/01/25 07:39:12;;;;;;;4.63;2.03;;;;;;;11.76;50.69;99908.94;4952583;29;20543;-38
2024/01/25 07:41:37;;;;;;;4.95;2.42;;;;;;;11.62;51.07;99907.34;4952508;29;20474;-39
2024/01/25 07:44:03;;;;;;;5.60;2.03;;;;;;;11.69;50.39;99908.13;4952508;29;20027;-37
2024/01/25 07:46:28;;;;;;;9.93;2.08;;;;;;;11.68;49.90;99904.66;4952678;29;20031;-39
2024/01/25 07:48:53;;;;;;;7.30;1.63;;;;;;;11.31;50.23;99911.44;4953137;29;20027;-41
2024/01/25 07:51:19;;;;;;;6.95;2.22;;;;;;;11.28;50.47;99911.84;4952784;29;20034;-41
2024/01/25 07:53:44;;;;;;;5.32;1.77;;;;;;;11.44;49.35;99908.78;4952522;29;20408;-43
2024/01/25 07:56:10;;;;;;;3.50;1.65;;;;;;;11.70;49.48;99907.91;4952822;29;20035;-40
2024/01/25 07:58:37;;;;;;;6.55;2.08;;;;;;;12.23;48.76;99917.69;4952588;29;20063;-41
2024/01/25 08:01:06;;;;;;;3.65;1.80;;;;;;;12.42;47.58;99916.00;4952691;29;20089;-42
2024/01/25 08:03:32;;;;;;;3.95;2.33;;;;;;;12.75;47.08;99915.03;4952896;29;20118;-41
2024/01/25 08:06:02;;;;;;;5.78;1.85;;;;;;;12.48;48.01;99907.13;4952436;29;20094;-40
2024/01/25 08:08:28;;;;;;;4.13;2.17;;;;;;;13.17;46.39;99902.03;4952465;29;20102;-39
2024/01/25 08:10:53;;;;;;;6.25;2.10;;;;;;;13.34;45.99;99897.00;4952597;29;20038;-43
2024/01/25 08:13:19;;;;;;;5.30;2.00;;;;;;;13.58;45.42;99898.03;4953005;29;20027;-38
2024/01/25 08:15:45;;;;;;;5.63;1.80;;;;;;;13.23;45.83;99890.50;4952589;29;20035;-40
2024/01/25 08:18:10;;;;;;;4.68;2.15;;;;;;;13.02;45.65;99889.00;4952583;29;20038;-40
2024/01/25 08:20:37;;;;;;;10.40;2.08;;;;;;;13.07;46.03;99885.66;4952532;29;20023;-37
2024/01/25 08:23:03;;;;;;;6.15;2.30;;;;;;;13.16;46.05;99889.72;4952424;29;20115;-42
2024/01/25 08:25:28;;;;;;;3.55;2.10;;;;;;;13.22;45.67;99886.16;4952573;29;20117;-40
2024/01/25 08:27:53;;;;;;;7.05;2.00;;;;;;;13.37;45.68;99877.06;4952408;29;20038;-40
2024/01/25 08:30:19;;;;;;;3.08;1.90;;;;;;;13.29;45.21;99878.13;4952625;29;20035;-40
2024/01/25 08:32:44;;;;;;;7.70;2.10;;;;;;;13.14;45.62;99869.59;4952264;29;20483;-40
2024/01/25 08:35:10;;;;;;;5.47;2.08;;;;;;;13.39;45.52;99866.97;4952360;29;20019;-41
2024/01/25 08:37:37;;;;;;;6.32;2.00;;;;;;;13.07;45.52;99861.63;4952390;29;20050;-36
2024/01/25 08:40:05;;;;;;;4.95;2.15;;;;;;;13.17;45.72;99869.16;4952138;29;20058;-38
2024/01/25 08:42:31;;;;;;;5.25;2.08;;;;;;;12.86;46.15;99850.25;4952278;29;20079;-39
2024/01/25 08:44:57;;;;;;;5.35;2.00;;;;;;;12.88;46.29;99848.19;4952189;29;20495;-39
2024/01/25 08:47:22;;;;;;;5.13;2.20;;;;;;;12.70;46.68;99845.44;4952004;29;20082;-40
2024/01/25 08:49:47;;;;;;;5.13;2.20;;;;;;;12.66;46.85;99844.22;4952107;29;20148;-40
2024/01/25 08:52:13;;;;;;;4.32;2.10;;;;;;;13.09;46.37;99854.22;4952071;29;20031;-37
2024/01/25 08:54:38;;;;;;;5.13;2.00;;;;;;;13.22;45.73;99846.09;4952826;28;20046;-37
2024/01/25 08:57:04;;;;;;;7.32;2.10;;;;;;;12.92;45.92;99845.91;4955936;29;20515;-40
2024/01/25 08:59:32;;;;;;;9.95;2.08;;;;;;;12.83;46.26;99849.84;4955614;29;20058;-39
2024/01/25 09:01:58;;;;;;;4.93;1.85;;;;;;;13.04;46.24;99854.88;4956137;29;20117;-40
2024/01/25 09:04:23;;;;;;;9.98;2.30;;;;;;;13.08;45.73;99855.25;4954737;29;20490;-41
2024/01/25 09:06:49;;;;;;;5.35;1.90;;;;;;;12.84;45.92;99856.84;4955217;29;20028;-40
2024/01/25 09:09:14;;;;;;;4.90;2.00;;;;;;;12.57;46.71;99846.31;4955351;29;20042;-40
2024/01/25 09:11:39;;;;;;;6.38;2.17;;;;;;;12.90;46.00;99886.16;4955561;29;20467;-41
2024/01/25 09:14:05;;;;;;;8.07;2.38;;;;;;;12.89;45.50;99859.69;4955629;29;20035;-42
2024/01/25 09:16:30;;;;;;;5.22;2.10;;;;;;;13.01;45.26;99860.63;4955407;29;20032;-40
2024/01/25 09:18:56;;;;;;;9.98;2.10;;;;;;;12.78;45.48;99877.22;4955564;29;20038;-40
2024/01/25 09:21:21;;;;;;;9.35;2.00;;;;;;;12.90;45.44;99858.66;4955438;29;20027;-42
2024/01/25 09:23:46;;;;;;;9.07;2.38;;;;;;;12.59;46.39;99870.16;4955110;29;20033;-39
2024/01/25 09:26:12;;;;;;;7.82;2.00;;;;;;;12.62;46.28;99862.53;4955374;29;20460;-42
2024/01/25 09:28:38;;;;;;;6.97;2.20;;;;;;;12.75;45.69;99877.63;4954902;29;20135;-40
2024/01/25 09:31:03;;;;;;;5.63;2.25;;;;;;;12.64;45.96;99872.97;4938242;29;20106;-40
2024/01/25 09:33:29;;;;;;;4.85;2.25;;;;;;;12.46;46.15;99882.50;4955220;29;20055;-41
2024/01/25 09:35:55;;;;;;;3.42;1.75;;;;;;;12.43;46.06;99879.44;4955022;29;20051;-42
2024/01/25 09:38:21;;;;;;;4.38;2.10;;;;;;;12.73;45.96;99877.03;4954911;29;20511;-42
2024/01/25 09:40:46;;;;;;;5.20;2.10;;;;;;;13.02;45.34;99866.78;4955203;29;20035;-39
2024/01/25 09:43:12;;;;;;;5.85;1.92;;;;;;;12.83;45.15;99876.56;4955570;29;20542;-45
2024/01/25 09:45:37;;;;;;;5.72;2.35;;;;;;;12.85;45.46;99887.84;4955006;29;20555;-42
2024/01/25 09:48:04;;;;;;;4.47;2.17;;;;;;;12.97;44.85;99874.66;4955049;29;20133;-41
2024/01/25 09:50:33;;;;;;;6.63;2.40;;;;;;;12.97;45.14;99878.13;4954961;29;20027;-40
2024/01/25 09:52:59;;;;;;;3.88;1.98;;;;;;;12.76;44.91;99884.63;4954634;29;20035;-39
2024/01/25 09:55:26;;;;;;;4.18;2.20;;;;;;;12.60;44.73;99874.44;4955023;29;20023;-43
2024/01/25 09:57:56;;;;;;;5.28;2.15;;;;;;;12.39;45.75;99867.56;4954825;29;20378;-42
2024/01/25 10:00:22;;;;;;;5.65;2.45;;;;;;;12.11;46.61;99872.19;4954283;29;20256;-40
2024/01/25 10:02:52;;;;;;;7.25;2.40;;;;;;;12.55;45.72;99876.94;4954476;29;20147;-42
2024/01/25 10:05:18;;;;;;;5.25;2.47;;;;;;;12.54;45.30;99864.63;4954167;28;20027;-39
2024/01/25 10:07:45;;;;;;;7.15;2.40;;;;;;;12.27;46.15;99867.41;4953390;29;20310;-40
2024/01/25 10:10:12;;;;;;;7.70;2.50;;;;;;;12.18;46.06;99882.00;4954239;29;20046;-38
2024/01/25 10:12:38;;;;;;;7.55;2.78;;;;;;;12.42;45.76;99869.81;4953897;29;20436;-39
2024/01/25 10:15:05;;;;;;;7.13;2.50;;;;;;;12.28;46.09;99856.53;4954982;29;20105;-43
2024/01/25 10:17:30;;;;;;;4.55;2.05;;;;;;;12.29;46.12;99860.81;4954226;29;20074;-44
2024/01/25 10:19:56;;;;;;;7.75;2.67;;;;;;;12.77;44.73;99861.41;4954208;29;20027;-43
2024/01/25 10:22:21;;;;;;;6.55;2.17;;;;;;;12.82;44.92;99873.09;4954170;29;20023;-43
2024/01/25 10:24:50;;;;;;;6.90;2.38;;;;;;;12.72;44.62;99851.38;4954149;29;20023;-40
2024/01/25 10:27:16;;;;;;;5.25;2.10;;;;;;;12.61;44.58;99858.22;4954356;29;20462;-41
2024/01/25 10:29:41;;;;;;;4.60;2.25;;;;;;;12.26;45.74;99841.75;4954125;29;20034;-40
2024/01/25 10:32:09;;;;;;;5.18;1.98;;;;;;;12.47;45.54;99856.63;4954017;29;20130;-42
2024/01/25 10:34:36;;;;;;;9.18;2.35;;;;;;;12.24;45.64;99852.66;4954197;29;20419;-40
2024/01/25 10:37:07;;;;;;;6.53;2.53;;;;;;;12.25;45.85;99851.59;4954244;29;20101;-42
2024/01/25 10:39:33;;;;;;;5.18;2.78;;;;;;;12.39;45.85;99841.69;4954088;29;20027;-40
2024/01/25 10:41:59;;;;;;;5.70;2.40;;;;;;;12.21;45.59;99844.25;4954369;29;20437;-40
2024/01/25 10:44:25;;;;;;;6.50;2.63;;;;;;;12.05;46.65;99829.50;4954432;29;20107;-43
2024/01/25 10:46:51;;;;;;;5.30;2.38;;;;;;;12.29;45.85;99834.13;4953835;29;20031;-44
2024/01/25 10:49:18;;;;;;;5.43;2.33;;;;;;;12.64;44.11;99827.59;4953957;29;20034;-41
2024/01/25 10:51:44;;;;;;;6.80;2.40;;;;;;;12.44;44.48;99825.84;4953625;29;20038;-41
2024/01/25 10:54:14;;;;;;;7.28;2.53;;;;;;;12.37;44.93;99833.06;4953849;29;20496;-44
2024/01/25 10:56:44;;;;;;;7.15;2.47;;;;;;;12.37;44.70;99830.41;4954041;29;20019;-43
2024/01/25 10:59:13;;;;;;;4.70;2.30;;;;;;;12.15;45.01;99811.22;4953809;29;20055;-43
2024/01/25 11:01:43;;;;;;;4.97;1.92;;;;;;;12.21;44.84;99821.06;4953887;29;20106;-42
2024/01/25 11:04:19;;;;;;;6.80;2.08;;;;;;;12.27;43.81;99822.84;4953935;29;20416;-39
2024/01/25 11:06:45;;;;;;;5.47;2.17;;;;;;;12.10;44.12;99827.03;4953562;29;20027;-41
2024/01/25 11:09:17;;;;;;;3.47;2.00;;;;;;;12.05;44.09;99822.34;4954043;29;20027;-44
2024/01/25 11:11:45;;;;;;;5.22;2.20;;;;;;;12.29;44.19;99828.81;4953372;29;20502;-42
2024/01/25 11:14:14;;;;;;;5.75;2.33;;;;;;;12.16;44.06;99833.38;4953356;29;20035;-42
2024/01/25 11:16:44;;;;;;;4.68;2.22;;;;;;;12.17;44.13;99840.38;4953643;29;20042;-41
2024/01/25 11:19:17;;;;;;;4.93;2.30;;;;;;;12.36;44.00;99812.78;4953426;28;20027;-42
2024/01/25 11:21:46;;;;;;;5.88;2.08;;;;;;;12.24;44.29;99822.47;4951467;29;20015;-40
2024/01/25 11:24:13;;;;;;;;;;;;;;;12.48;43.55;99818.25;4951359;29;20015;-43
2024/01/25 11:26:39;;;;;;;9.07;2.40;;;;;;;12.76;42.97;99825.88;4949825;29;19914;-39
2024/01/25 11:29:04;;;;;;;5.95;2.60;;;;;;;12.71;42.82;99828.38;4946289;29;20026;-41